Monday, November 5, 2018

Pipistrel Virus SW 914, N96YU: Incident occurred November 03, 2018 in Newport News, Virginia

Federal Aviation Administration / Flight Standards District Office; Richmond, Virginia

Veered off the runway and damaged a light.

https://registry.faa.gov/N96YU

Date: 03-NOV-18
Time: 19:00:00Z
Regis#: N96YU
Aircraft Make: EXPERIMENTAL
Aircraft Model: VIRUS SW 914
Event Type: INCIDENT
Highest Injury: NONE
Aircraft Missing: No
Damage: UNKNOWN
Activity: UNKNOWN
Flight Phase: LANDING (LDG)
Operation: 91
City: NEWPORT NEWS
State: VIRGINIA

1 comment:

Jim B said...


KPHF 031854Z 30010G19KT 10SM CLR 17/04 A3011 RMK AO2 SLP194 T01670039

It was a gusty/windy day. Fair crosswind to both runways 02/20 and 07/25.

Most of our birds stayed down.